createdAt,value
2023-02-12T00:00:11.279Z,18.20
2023-02-12T00:02:44.852Z,18.53
2023-02-12T00:05:12.647Z,18.40
2023-02-12T00:07:40.440Z,19.17
2023-02-12T00:10:09.633Z,17.77
2023-02-12T00:12:37.470Z,18.10
2023-02-12T00:15:05.710Z,18.67
2023-02-12T00:17:34.856Z,18.80
2023-02-12T00:20:02.661Z,18.47
2023-02-12T00:22:30.514Z,18.07
2023-02-12T00:24:58.428Z,18.03
2023-02-12T00:27:26.578Z,17.53
2023-02-12T00:29:54.376Z,15.80
2023-02-12T00:32:22.231Z,17.33
2023-02-12T00:34:51.434Z,17.10
2023-02-12T00:37:19.394Z,18.53
2023-02-12T00:39:47.227Z,17.20
2023-02-12T00:42:15.002Z,19.10
2023-02-12T00:44:42.772Z,17.63
2023-02-12T00:47:11.280Z,16.97
2023-02-12T00:49:39.137Z,18.73
2023-02-12T00:52:08.281Z,18.47
2023-02-12T00:54:36.101Z,19.17
2023-02-12T00:57:03.929Z,18.50
2023-02-12T00:59:31.928Z,18.27
2023-02-12T01:01:59.782Z,19.00
2023-02-12T01:04:27.686Z,19.10
2023-02-12T01:06:56.317Z,17.87
2023-02-12T01:09:25.481Z,16.60
2023-02-12T01:11:53.293Z,16.80
2023-02-12T01:14:21.650Z,16.73
2023-02-12T01:16:49.433Z,17.13
2023-02-12T01:19:17.302Z,18.20
2023-02-12T01:21:45.671Z,16.20
2023-02-12T01:24:13.573Z,16.50
2023-02-12T01:26:42.829Z,16.70
2023-02-12T01:29:11.700Z,16.50
2023-02-12T01:31:40.657Z,16.47
2023-02-12T01:34:13.714Z,17.80
2023-02-12T01:36:41.505Z,16.97
2023-02-12T01:39:09.611Z,15.97
2023-02-12T01:41:45.995Z,19.07
2023-02-12T01:44:18.130Z,17.70
2023-02-12T01:46:48.437Z,16.40
2023-02-12T01:49:20.002Z,17.47
2023-02-12T01:51:49.932Z,17.23
2023-02-12T01:54:19.660Z,17.20
2023-02-12T01:56:49.118Z,17.87
2023-02-12T01:59:17.947Z,17.47
2023-02-12T02:01:45.970Z,17.00
2023-02-12T02:04:17.072Z,17.00
2023-02-12T02:06:49.245Z,18.70
2023-02-12T02:09:17.711Z,17.93
2023-02-12T02:12:02.985Z,17.67
2023-02-12T02:14:34.802Z,17.43
2023-02-12T02:17:14.488Z,18.50
2023-02-12T02:19:56.883Z,18.57
2023-02-12T02:22:30.125Z,17.17
2023-02-12T02:25:28.374Z,17.10
2023-02-12T02:28:05.071Z,18.90
2023-02-12T02:30:36.669Z,19.20
2023-02-12T02:33:14.890Z,18.43
2023-02-12T02:35:48.510Z,20.90
2023-02-12T02:38:23.550Z,18.47
2023-02-12T02:40:56.829Z,19.03
2023-02-12T02:43:29.629Z,18.30
2023-02-12T02:46:01.133Z,18.30
2023-02-12T02:48:34.690Z,19.30
2023-02-12T02:51:05.324Z,19.30
2023-02-12T02:53:37.524Z,18.57
2023-02-12T02:56:07.952Z,19.13
2023-02-12T02:58:37.990Z,19.37
2023-02-12T03:01:09.357Z,20.27
2023-02-12T03:03:40.723Z,19.57
2023-02-12T03:06:12.240Z,18.57
2023-02-12T03:08:43.163Z,19.27
2023-02-12T03:11:14.473Z,20.10
2023-02-12T03:13:44.898Z,18.60
2023-02-12T03:16:18.790Z,19.30
2023-02-12T03:18:50.118Z,18.20
2023-02-12T03:21:19.989Z,19.60
2023-02-12T03:23:50.545Z,19.67
2023-02-12T03:26:22.652Z,19.13
2023-02-12T03:28:50.526Z,21.00
2023-02-12T03:31:26.223Z,20.17
2023-02-12T03:34:03.648Z,20.13
2023-02-12T03:36:37.026Z,18.63
2023-02-12T03:39:09.869Z,18.70
2023-02-12T03:41:42.829Z,20.00
2023-02-12T03:44:17.539Z,18.50
2023-02-12T03:46:53.547Z,18.97
2023-02-12T03:49:24.952Z,19.90
2023-02-12T03:51:53.876Z,20.13
2023-02-12T03:54:22.679Z,19.93
2023-02-12T03:56:53.154Z,19.77
2023-02-12T03:59:21.652Z,19.93
2023-02-12T04:01:53.396Z,20.80
2023-02-12T04:04:21.758Z,19.07
2023-02-12T04:06:50.875Z,18.87
2023-02-12T04:09:19.134Z,20.30
2023-02-12T04:11:57.676Z,19.67
2023-02-12T04:14:30.634Z,20.37
2023-02-12T04:17:05.294Z,20.63
2023-02-12T04:19:37.187Z,21.00
2023-02-12T04:22:16.212Z,22.20
2023-02-12T04:24:50.802Z,21.70
2023-02-12T04:27:23.066Z,19.90
2023-02-12T04:29:53.847Z,22.40
2023-02-12T04:32:26.803Z,23.67
2023-02-12T04:35:00.183Z,22.80
2023-02-12T04:37:30.941Z,22.23
2023-02-12T04:39:59.781Z,21.73
2023-02-12T04:42:27.611Z,21.33
2023-02-12T04:44:55.379Z,21.37
2023-02-12T04:47:24.542Z,21.90
2023-02-12T04:49:52.330Z,22.47
2023-02-12T04:52:20.106Z,20.63
2023-02-12T04:54:47.946Z,22.70
2023-02-12T04:57:15.774Z,21.83
2023-02-12T04:59:43.553Z,21.47
2023-02-12T05:02:11.333Z,23.03
2023-02-12T05:04:40.494Z,20.57
2023-02-12T05:07:08.330Z,21.97
2023-02-12T05:09:39.077Z,22.90
2023-02-12T05:12:07.215Z,21.97
2023-02-12T05:14:35.035Z,22.10
2023-02-12T05:17:02.822Z,21.17
2023-02-12T05:19:30.630Z,21.70
2023-02-12T05:21:59.815Z,22.20
2023-02-12T05:24:28.109Z,21.67
2023-02-12T05:26:55.917Z,23.40
2023-02-12T05:29:23.723Z,23.23
2023-02-12T05:31:51.584Z,22.33
2023-02-12T05:34:20.266Z,22.67
2023-02-12T05:36:48.170Z,21.27
2023-02-12T05:39:17.391Z,22.60
2023-02-12T05:41:45.196Z,21.77
2023-02-12T05:44:15.040Z,21.90
2023-02-12T05:46:43.216Z,23.90
2023-02-12T05:49:11.321Z,23.80
2023-02-12T05:51:39.197Z,24.63
2023-02-12T05:54:08.226Z,27.23
2023-02-12T05:56:39.270Z,27.13
2023-02-12T05:59:08.775Z,26.83
2023-02-12T06:01:38.967Z,26.10
2023-02-12T06:04:09.638Z,28.60
2023-02-12T06:06:37.671Z,27.97
2023-02-12T06:09:05.462Z,29.70
2023-02-12T06:11:38.083Z,27.10
2023-02-12T06:14:07.155Z,27.67
2023-02-12T06:16:35.467Z,29.20
2023-02-12T06:19:05.118Z,28.40
2023-02-12T06:21:33.981Z,29.67
2023-02-12T06:24:01.902Z,28.03
2023-02-12T06:26:30.030Z,27.27
2023-02-12T06:28:59.178Z,29.37
2023-02-12T06:31:29.133Z,27.83
2023-02-12T06:34:00.382Z,28.60
2023-02-12T06:36:28.404Z,29.30
2023-02-12T06:38:56.632Z,27.70
2023-02-12T06:41:24.775Z,27.20
2023-02-12T06:43:52.629Z,27.03
2023-02-12T06:46:21.944Z,28.20
2023-02-12T06:48:49.791Z,26.97
2023-02-12T06:51:21.813Z,29.50
2023-02-12T06:53:49.630Z,27.80
2023-02-12T06:56:18.017Z,27.97
2023-02-12T06:58:47.599Z,30.10
2023-02-12T07:01:18.641Z,29.80
2023-02-12T07:03:49.773Z,30.50
2023-02-12T07:06:18.015Z,30.20
2023-02-12T07:08:46.085Z,28.30
2023-02-12T07:11:14.020Z,29.20
2023-02-12T07:13:42.108Z,31.00
2023-02-12T07:16:11.689Z,29.87
2023-02-12T07:18:39.914Z,30.43
2023-02-12T07:21:09.921Z,30.00
2023-02-12T07:23:37.750Z,29.97
2023-02-12T07:26:10.302Z,28.13
2023-02-12T07:28:38.199Z,30.47
2023-02-12T07:31:10.959Z,28.33
2023-02-12T07:33:39.260Z,29.50
2023-02-12T07:36:10.144Z,30.40
2023-02-12T07:38:39.821Z,32.17
2023-02-12T07:41:10.857Z,32.83
2023-02-12T07:43:39.438Z,31.87
2023-02-12T07:46:09.407Z,31.23
2023-02-12T07:48:37.236Z,29.70
2023-02-12T07:51:07.529Z,32.37
2023-02-12T07:53:37.297Z,31.83
2023-02-12T07:56:09.922Z,29.90
2023-02-12T07:58:38.255Z,30.33
2023-02-12T08:01:14.741Z,30.77
2023-02-12T08:03:42.567Z,31.47
2023-02-12T08:06:11.431Z,32.03
2023-02-12T08:08:40.903Z,30.73
2023-02-12T08:11:09.571Z,30.67
2023-02-12T08:13:38.252Z,30.87
2023-02-12T08:16:07.869Z,29.90
2023-02-12T08:18:36.568Z,31.73
2023-02-12T08:21:05.657Z,31.50
2023-02-12T08:23:33.629Z,30.23
2023-02-12T08:26:13.258Z,28.30
2023-02-12T08:28:43.306Z,28.80
2023-02-12T08:31:15.741Z,28.47
2023-02-12T08:33:43.548Z,28.53
2023-02-12T08:36:12.718Z,28.20
2023-02-12T08:38:40.625Z,29.50
2023-02-12T08:41:11.372Z,27.90
2023-02-12T08:43:41.575Z,27.80
2023-02-12T08:46:11.845Z,28.17
2023-02-12T08:48:40.201Z,28.23
2023-02-12T08:51:13.051Z,27.93
2023-02-12T08:53:42.096Z,29.23
2023-02-12T08:56:10.678Z,28.50
2023-02-12T08:58:40.202Z,28.77
2023-02-12T09:01:11.251Z,28.67
2023-02-12T09:03:39.205Z,27.93
2023-02-12T09:06:08.956Z,28.00
2023-02-12T09:08:37.950Z,28.93
2023-02-12T09:11:07.212Z,27.37
2023-02-12T09:13:35.505Z,26.57
2023-02-12T09:16:05.758Z,28.00
2023-02-12T09:18:34.225Z,24.80
2023-02-12T09:21:02.881Z,25.27
2023-02-12T09:23:30.770Z,25.13
2023-02-12T09:25:58.864Z,25.77
2023-02-12T09:28:26.923Z,25.80
2023-02-12T09:30:54.817Z,24.27
2023-02-12T09:33:24.412Z,24.70
2023-02-12T09:35:52.321Z,26.10
2023-02-12T09:38:20.638Z,24.50
2023-02-12T09:40:53.707Z,27.13
2023-02-12T09:43:26.489Z,23.97
2023-02-12T09:45:59.670Z,25.20
2023-02-12T09:48:46.845Z,25.77
2023-02-12T09:51:15.150Z,24.17
2023-02-12T09:53:45.862Z,25.70
2023-02-12T09:56:16.248Z,25.27
2023-02-12T09:58:47.644Z,23.90
2023-02-12T10:01:17.431Z,23.87
2023-02-12T10:03:49.574Z,24.33
2023-02-12T10:06:19.000Z,25.10
2023-02-12T10:09:00.625Z,24.67
2023-02-12T10:11:43.522Z,23.47
2023-02-12T10:14:25.699Z,23.43
2023-02-12T10:16:58.065Z,24.07
2023-02-12T10:19:39.175Z,24.70
2023-02-12T10:22:14.082Z,23.70
2023-02-12T10:24:50.221Z,23.87
2023-02-12T10:27:19.299Z,24.33
2023-02-12T10:29:48.258Z,23.30
2023-02-12T10:32:24.091Z,23.17
2023-02-12T10:34:54.213Z,23.60
2023-02-12T10:37:28.102Z,24.10
2023-02-12T10:39:59.309Z,24.57
2023-02-12T10:42:38.239Z,24.47
2023-02-12T10:45:06.878Z,23.67
2023-02-12T10:47:34.698Z,23.00
2023-02-12T10:50:04.337Z,23.97
2023-02-12T10:52:37.856Z,23.60
2023-02-12T10:55:25.051Z,24.53
2023-02-12T10:57:53.093Z,23.73
2023-02-12T11:00:26.715Z,23.60
2023-02-12T11:03:06.227Z,26.53
2023-02-12T11:05:36.912Z,24.27
2023-02-12T11:08:05.585Z,23.57
2023-02-12T11:10:34.829Z,25.03
2023-02-12T11:13:03.145Z,24.87
2023-02-12T11:15:36.270Z,23.70
2023-02-12T11:18:07.521Z,22.77
2023-02-12T11:20:39.569Z,23.97
2023-02-12T11:23:10.930Z,24.90
2023-02-12T11:25:39.240Z,24.20
2023-02-12T11:28:15.625Z,22.40
2023-02-12T11:30:51.267Z,21.40
2023-02-12T11:33:31.279Z,25.50
2023-02-12T11:36:07.509Z,24.10
2023-02-12T11:38:37.446Z,23.50
2023-02-12T11:41:10.237Z,22.33
2023-02-12T11:43:39.574Z,23.80
2023-02-12T11:46:09.333Z,23.57
2023-02-12T11:48:39.221Z,23.43
2023-02-12T11:51:10.249Z,21.03
2023-02-12T11:53:40.900Z,21.50
2023-02-12T11:56:10.456Z,20.47
2023-02-12T11:58:38.889Z,21.50
2023-02-12T12:01:12.693Z,19.90
2023-02-12T12:03:47.035Z,20.33
2023-02-12T12:06:39.321Z,22.07
2023-02-12T12:09:15.765Z,19.33
2023-02-12T12:11:49.036Z,19.97
2023-02-12T12:14:21.679Z,19.70
2023-02-12T12:17:12.957Z,20.37
2023-02-12T12:19:54.370Z,17.53
2023-02-12T12:22:40.754Z,16.30
2023-02-12T12:25:16.918Z,17.40
2023-02-12T12:28:03.966Z,15.37
2023-02-12T12:30:40.093Z,13.63
2023-02-12T12:33:13.506Z,13.83
2023-02-12T12:35:46.894Z,13.47
2023-02-12T12:38:24.812Z,15.60
2023-02-12T12:41:04.042Z,16.97
2023-02-12T12:43:39.958Z,16.17
2023-02-12T12:46:35.216Z,15.10
2023-02-12T12:49:22.930Z,14.37
2023-02-12T12:52:11.983Z,14.90
2023-02-12T12:55:04.225Z,13.80
2023-02-12T12:57:40.824Z,14.17
2023-02-12T13:00:19.735Z,14.33
2023-02-12T13:03:17.487Z,13.70
2023-02-12T13:06:26.917Z,13.20
2023-02-12T13:09:17.168Z,15.30
2023-02-12T13:11:55.001Z,15.80
2023-02-12T13:14:32.638Z,15.43
2023-02-12T13:17:09.103Z,15.03
2023-02-12T13:19:46.516Z,15.93
2023-02-12T13:22:18.798Z,14.67
2023-02-12T13:24:51.290Z,16.67
2023-02-12T13:27:24.130Z,16.10
2023-02-12T13:29:53.933Z,15.03
2023-02-12T13:32:26.927Z,15.03
2023-02-12T13:34:56.558Z,14.40
2023-02-12T13:37:35.290Z,14.63
2023-02-12T13:40:05.777Z,14.53
2023-02-12T13:42:44.174Z,14.73
2023-02-12T13:45:23.045Z,15.37
2023-02-12T13:48:02.691Z,15.33
2023-02-12T13:50:38.404Z,15.10
2023-02-12T13:53:16.153Z,16.60
2023-02-12T13:55:58.157Z,15.17
2023-02-12T13:58:50.166Z,15.83
2023-02-12T14:01:37.936Z,17.37
2023-02-12T14:04:39.134Z,16.40
2023-02-12T14:07:08.614Z,13.77
2023-02-12T14:09:40.571Z,14.50
2023-02-12T14:12:10.976Z,13.30
2023-02-12T14:14:42.414Z,16.80
2023-02-12T14:17:41.939Z,14.10
2023-02-12T14:20:27.382Z,14.30
2023-02-12T14:23:14.830Z,14.60
2023-02-12T14:25:45.178Z,15.23
2023-02-12T14:28:25.705Z,15.40
2023-02-12T14:31:43.410Z,15.00
2023-02-12T14:34:48.959Z,14.93
2023-02-12T14:37:38.185Z,15.20
2023-02-12T14:40:31.852Z,15.00
2023-02-12T14:42:59.998Z,15.90
2023-02-12T14:45:31.530Z,16.60
2023-02-12T14:48:01.167Z,16.10
2023-02-12T14:50:40.119Z,16.40
2023-02-12T14:53:23.199Z,15.50
2023-02-12T14:55:52.343Z,15.20
2023-02-12T14:58:24.776Z,15.43
2023-02-12T15:00:58.721Z,15.07
2023-02-12T15:03:40.182Z,14.60
2023-02-12T15:06:16.213Z,14.57
2023-02-12T15:08:47.865Z,16.50
2023-02-12T15:11:24.937Z,15.77
2023-02-12T15:13:59.234Z,13.77
2023-02-12T15:16:45.774Z,15.73
2023-02-12T15:19:35.045Z,16.50
2023-02-12T15:22:02.917Z,17.80
2023-02-12T15:24:30.726Z,17.00
2023-02-12T15:27:01.290Z,15.90
2023-02-12T15:29:30.808Z,15.60
2023-02-12T15:32:00.836Z,16.90
2023-02-12T15:34:32.752Z,17.20
2023-02-12T15:37:02.430Z,18.80
2023-02-12T15:39:38.976Z,18.53
2023-02-12T15:42:06.900Z,18.20
2023-02-12T15:44:37.613Z,19.30
2023-02-12T15:47:13.168Z,19.60
2023-02-12T15:49:43.503Z,18.43
2023-02-12T15:52:19.882Z,19.37
2023-02-12T15:54:48.911Z,19.40
2023-02-12T15:57:22.657Z,19.53
2023-02-12T15:59:52.184Z,20.67
2023-02-12T16:02:23.564Z,18.90
2023-02-12T16:04:52.774Z,21.10
2023-02-12T16:07:20.965Z,20.03
2023-02-12T16:09:49.955Z,20.07
2023-02-12T16:12:21.686Z,19.07
2023-02-12T16:14:51.398Z,19.40
2023-02-12T16:17:27.493Z,19.00
2023-02-12T16:19:58.845Z,19.60
2023-02-12T16:22:29.577Z,18.00
2023-02-12T16:24:57.650Z,19.00
2023-02-12T16:27:27.473Z,17.33
2023-02-12T16:29:56.724Z,19.40
2023-02-12T16:32:36.763Z,20.63
2023-02-12T16:35:20.368Z,18.17
2023-02-12T16:37:50.217Z,19.33
2023-02-12T16:40:26.107Z,17.33
2023-02-12T16:42:59.493Z,17.43
2023-02-12T16:45:38.799Z,16.23
2023-02-12T16:48:16.754Z,16.13
2023-02-12T16:50:51.833Z,16.17
2023-02-12T16:53:35.158Z,15.90
2023-02-12T16:56:05.026Z,15.67
2023-02-12T16:58:32.822Z,15.77
2023-02-12T17:01:03.708Z,16.30
2023-02-12T17:03:31.838Z,16.03
2023-02-12T17:06:01.182Z,15.83
2023-02-12T17:08:29.652Z,15.63
2023-02-12T17:10:57.456Z,15.83
2023-02-12T17:13:25.307Z,16.10
2023-02-12T17:15:55.663Z,16.17
2023-02-12T17:18:24.076Z,15.20
2023-02-12T17:20:55.183Z,15.60
2023-02-12T17:23:24.914Z,16.13
2023-02-12T17:25:52.715Z,15.40
2023-02-12T17:28:21.148Z,15.20
2023-02-12T17:30:49.074Z,16.27
2023-02-12T17:33:17.311Z,14.83
2023-02-12T17:35:45.151Z,15.23
2023-02-12T17:38:13.284Z,16.27
2023-02-12T17:40:42.730Z,15.97
2023-02-12T17:43:10.658Z,16.20
2023-02-12T17:45:44.183Z,15.47
2023-02-12T17:48:12.488Z,16.10
2023-02-12T17:50:41.461Z,16.63
2023-02-12T17:53:09.514Z,16.33
2023-02-12T17:55:39.321Z,15.37
2023-02-12T17:58:08.934Z,15.63
2023-02-12T18:00:36.797Z,15.83
2023-02-12T18:03:04.939Z,15.73
2023-02-12T18:05:35.599Z,15.30
2023-02-12T18:08:03.906Z,16.70
2023-02-12T18:10:34.049Z,17.27
2023-02-12T18:13:02.041Z,18.10
2023-02-12T18:15:32.392Z,16.17
2023-02-12T18:18:00.762Z,15.97
2023-02-12T18:20:29.400Z,16.30
2023-02-12T18:22:57.610Z,15.80
2023-02-12T18:25:25.596Z,15.80
2023-02-12T18:27:53.476Z,14.90
2023-02-12T18:30:21.422Z,15.90
2023-02-12T18:32:51.853Z,14.80
2023-02-12T18:35:20.318Z,15.10
2023-02-12T18:37:48.523Z,14.70
2023-02-12T18:40:17.134Z,14.43
2023-02-12T18:42:45.101Z,13.87
2023-02-12T18:45:13.442Z,14.20
2023-02-12T18:47:41.956Z,14.90
2023-02-12T18:50:12.175Z,14.93
2023-02-12T18:52:40.159Z,15.17
2023-02-12T18:55:09.057Z,15.87
2023-02-12T18:57:37.609Z,14.47
2023-02-12T19:00:06.399Z,15.20
2023-02-12T19:02:34.212Z,15.57
2023-02-12T19:05:02.288Z,15.57
2023-02-12T19:07:31.794Z,15.20
2023-02-12T19:09:59.700Z,15.67
2023-02-12T19:12:27.923Z,15.40
2023-02-12T19:14:55.991Z,15.50
2023-02-12T19:17:24.039Z,15.67
2023-02-12T19:19:52.244Z,14.67
2023-02-12T19:22:20.358Z,15.57
2023-02-12T19:24:52.725Z,16.13
2023-02-12T19:27:20.575Z,16.50
2023-02-12T19:29:48.440Z,14.97
2023-02-12T19:32:16.425Z,15.60
2023-02-12T19:34:45.367Z,15.07
2023-02-12T19:37:13.856Z,16.17
2023-02-12T19:39:42.143Z,15.57
2023-02-12T19:42:12.658Z,14.80
2023-02-12T19:44:40.733Z,14.50
2023-02-12T19:47:09.519Z,14.83
2023-02-12T19:49:37.981Z,13.83
2023-02-12T19:52:06.060Z,13.77
2023-02-12T19:54:33.852Z,14.20
2023-02-12T19:57:01.711Z,15.27
2023-02-12T19:59:31.089Z,13.47
2023-02-12T20:01:59.310Z,14.97
2023-02-12T20:04:27.206Z,14.80
2023-02-12T20:06:55.033Z,14.00
2023-02-12T20:09:23.607Z,16.27
2023-02-12T20:11:51.855Z,14.13
2023-02-12T20:14:20.832Z,13.50
2023-02-12T20:16:50.790Z,12.97
2023-02-12T20:19:20.540Z,12.30
2023-02-12T20:21:54.107Z,11.10
2023-02-12T20:24:23.052Z,10.80
2023-02-12T20:26:50.930Z,11.50
2023-02-12T20:29:18.776Z,10.80
2023-02-12T20:31:46.695Z,10.13
2023-02-12T20:34:17.881Z,9.20
2023-02-12T20:36:47.146Z,9.03
2023-02-12T20:39:16.169Z,8.93
2023-02-12T20:41:44.223Z,9.70
2023-02-12T20:44:14.551Z,9.07
2023-02-12T20:46:45.641Z,10.07
2023-02-12T20:49:14.495Z,9.30
2023-02-12T20:51:44.257Z,9.57
2023-02-12T20:54:12.140Z,10.30
2023-02-12T20:56:40.381Z,11.03
2023-02-12T20:59:09.098Z,10.20
2023-02-12T21:01:39.148Z,10.20
2023-02-12T21:04:09.145Z,9.90
2023-02-12T21:06:39.983Z,9.90
2023-02-12T21:09:09.743Z,10.20
2023-02-12T21:11:37.933Z,10.03
2023-02-12T21:14:21.149Z,10.10
2023-02-12T21:16:50.517Z,10.23
2023-02-12T21:19:20.239Z,10.20
2023-02-12T21:21:48.208Z,9.73
2023-02-12T21:24:19.627Z,10.03
2023-02-12T21:26:47.467Z,10.40
2023-02-12T21:29:18.569Z,10.00
2023-02-12T21:31:47.607Z,9.77
2023-02-12T21:34:19.013Z,9.53
2023-02-12T21:36:48.530Z,11.40
2023-02-12T21:39:24.541Z,10.23
2023-02-12T21:41:53.943Z,10.87
2023-02-12T21:44:22.672Z,10.57
2023-02-12T21:46:50.560Z,10.27
2023-02-12T21:49:24.771Z,10.33
2023-02-12T21:51:54.120Z,11.30
2023-02-12T21:54:23.700Z,10.73
2023-02-12T21:56:52.122Z,10.53
2023-02-12T21:59:20.375Z,10.83
2023-02-12T22:01:52.769Z,11.30
2023-02-12T22:04:20.835Z,10.93
2023-02-12T22:06:50.421Z,10.53
2023-02-12T22:09:20.200Z,10.37
2023-02-12T22:11:49.535Z,11.00
2023-02-12T22:14:18.594Z,10.67
2023-02-12T22:16:47.673Z,10.20
2023-02-12T22:19:16.025Z,10.33
2023-02-12T22:21:45.473Z,9.93
2023-02-12T22:24:15.728Z,10.40
2023-02-12T22:26:43.933Z,10.60
2023-02-12T22:29:15.312Z,10.80
2023-02-12T22:31:44.963Z,11.00
2023-02-12T22:34:15.687Z,10.90
2023-02-12T22:36:44.008Z,11.33
2023-02-12T22:39:13.800Z,11.47
2023-02-12T22:41:44.375Z,11.37
2023-02-12T22:44:14.343Z,12.03
2023-02-12T22:46:42.249Z,10.90
2023-02-12T22:49:10.293Z,11.70
2023-02-12T22:51:39.606Z,11.00
2023-02-12T22:54:08.221Z,10.60
2023-02-12T22:56:36.113Z,12.00
2023-02-12T22:59:03.938Z,10.50
2023-02-12T23:01:33.275Z,11.60
2023-02-12T23:04:01.341Z,11.97
2023-02-12T23:06:31.155Z,10.77
2023-02-12T23:09:01.801Z,11.10
2023-02-12T23:11:30.887Z,11.67
2023-02-12T23:13:59.146Z,11.00
2023-02-12T23:16:27.289Z,11.37
2023-02-12T23:18:57.692Z,11.70
2023-02-12T23:21:25.958Z,11.67
2023-02-12T23:23:54.022Z,11.07
2023-02-12T23:26:21.910Z,10.67
2023-02-12T23:28:49.794Z,12.40
2023-02-12T23:31:17.869Z,11.90
2023-02-12T23:33:46.337Z,10.50
2023-02-12T23:36:16.018Z,11.23
2023-02-12T23:38:43.885Z,11.50
2023-02-12T23:41:11.884Z,10.83
2023-02-12T23:43:39.750Z,11.40
2023-02-12T23:46:09.186Z,12.90
2023-02-12T23:48:37.165Z,11.17
2023-02-12T23:51:05.026Z,12.27
2023-02-12T23:53:34.256Z,11.90
2023-02-12T23:56:02.075Z,12.33
2023-02-12T23:58:29.894Z,12.83
